Weirs Beach, New Hampshire
Current Conditions -  °F | °C
As of 1:55 AM on Sunday 21 Dec 2014 (Local Time) from KLCI Reporting Station
Overcast Overcast  
Wind Chill: 17°   Ceiling: 4200
Heat Index: 25°   Visibility: 10mi
Dew Point: 19°   Wind: 7mph
Humidity: 80%   Direction: 50°NE
Pressure: 30.28"   Gusts: NA
Location:  43.5478°N, 71.4074°W
Report Text: KLCI 210655Z AUTO 05006KT 10SM BKN042 OVC090 M04/M07 A3028 RMK AO1
Loading
Personal Weather Stations






























Interactive Weather Map New forecast layout! Learn more

10-Day Weather Forecast

Advertisements
Track Severe Weather on mobile